SWA337 KBOI-KDEN
Flight info
| Callsign | SWA337 |
|---|---|
| Flight time | 1h 29m |
| Altitude | 37000 |
| Route | DCT ROARR DCT AMFAL DCT MJANE FLATI5 |
| Aircraft | B738/M-SDE2E3FGHIRWXY/LB1 |
Departure
| Time | 2026-05-08 04:31 |
|---|---|
| Airport | Boise Air Terminal/Gowen Field (KBOI) |
Arrival
| Time | 2026-05-08 06:00 |
|---|---|
| Airport | Denver International Airport (KDEN) |
| Time | Latitude | Longitude | Altitude | Speed | Heading |
|---|---|---|---|---|---|
| 2026-05-08 03:52 | 43.56780 | -116.21969 | 2858 ft | 0 kts | 221° |
| 2026-05-08 04:18 | 43.56793 | -116.21954 | 2852 ft | 4 kts | 212° |
| 2026-05-08 04:18 | 43.56815 | -116.21943 | 2855 ft | 4 kts | 159° |
| 2026-05-08 04:19 | 43.56822 | -116.21953 | 2855 ft | 1 kts | 97° |
| 2026-05-08 04:19 | 43.56823 | -116.21958 | 2855 ft | 1 kts | 97° |
| 2026-05-08 04:23 | 43.56823 | -116.21957 | 2857 ft | 0 kts | 97° |
| 2026-05-08 04:23 | 43.56821 | -116.21943 | 2854 ft | 3 kts | 97° |
| 2026-05-08 04:23 | 43.56816 | -116.21894 | 2858 ft | 7 kts | 97° |
| 2026-05-08 04:24 | 43.56806 | -116.21808 | 2858 ft | 11 kts | 105° |
| 2026-05-08 04:24 | 43.56744 | -116.21757 | 2860 ft | 11 kts | 173° |
| 2026-05-08 04:24 | 43.56660 | -116.21746 | 2857 ft | 13 kts | 175° |
| 2026-05-08 04:24 | 43.56561 | -116.21734 | 2858 ft | 15 kts | 174° |
| 2026-05-08 04:25 | 43.56475 | -116.21718 | 2861 ft | 7 kts | 149° |
| 2026-05-08 04:25 | 43.56448 | -116.21654 | 2862 ft | 9 kts | 115° |
| 2026-05-08 04:25 | 43.56408 | -116.21539 | 2863 ft | 17 kts | 116° |
| 2026-05-08 04:25 | 43.56374 | -116.21440 | 2867 ft | 20 kts | 115° |
| 2026-05-08 04:26 | 43.56300 | -116.21220 | 2871 ft | 19 kts | 114° |
| 2026-05-08 04:26 | 43.56264 | -116.21113 | 2874 ft | 18 kts | 116° |
| 2026-05-08 04:26 | 43.56199 | -116.20922 | 2874 ft | 15 kts | 115° |
| 2026-05-08 04:26 | 43.56119 | -116.20881 | 2874 ft | 15 kts | 207° |
| 2026-05-08 04:27 | 43.56026 | -116.20938 | 2872 ft | 15 kts | 206° |
| 2026-05-08 04:27 | 43.55990 | -116.20962 | 2869 ft | 0 kts | 205° |
| 2026-05-08 04:27 | 43.55986 | -116.20965 | 2869 ft | 3 kts | 205° |
| 2026-05-08 04:28 | 43.55933 | -116.20999 | 2865 ft | 9 kts | 206° |
| 2026-05-08 04:28 | 43.55928 | -116.21002 | 2865 ft | 0 kts | 206° |
| 2026-05-08 04:28 | 43.55907 | -116.21019 | 2865 ft | 5 kts | 223° |
| 2026-05-08 04:28 | 43.55910 | -116.21066 | 2864 ft | 5 kts | 291° |
| 2026-05-08 04:29 | 43.55910 | -116.21067 | 2864 ft | 0 kts | 291° |
| 2026-05-08 04:30 | 43.56016 | -116.21378 | 2862 ft | 81 kts | 295° |
| 2026-05-08 04:30 | 43.56373 | -116.22441 | 2851 ft | 160 kts | 294° |
| 2026-05-08 04:31 | 43.56874 | -116.23950 | 3608 ft | 173 kts | 295° |
| 2026-05-08 04:31 | 43.57356 | -116.25443 | 4781 ft | 169 kts | 295° |
| 2026-05-08 04:31 | 43.57840 | -116.26940 | 5593 ft | 181 kts | 295° |
| 2026-05-08 04:31 | 43.58391 | -116.28611 | 6164 ft | 198 kts | 296° |
| 2026-05-08 04:32 | 43.58922 | -116.30436 | 6565 ft | 219 kts | 281° |
| 2026-05-08 04:32 | 43.58709 | -116.32634 | 6844 ft | 247 kts | 247° |
| 2026-05-08 04:32 | 43.57580 | -116.34493 | 7402 ft | 261 kts | 218° |
| 2026-05-08 04:32 | 43.55883 | -116.35656 | 7852 ft | 283 kts | 204° |
| 2026-05-08 04:33 | 43.54032 | -116.36625 | 8661 ft | 290 kts | 203° |
| 2026-05-08 04:33 | 43.52043 | -116.37169 | 9635 ft | 298 kts | 179° |
| 2026-05-08 04:33 | 43.50042 | -116.36279 | 10447 ft | 313 kts | 149° |
| 2026-05-08 04:33 | 43.48461 | -116.34111 | 10715 ft | 342 kts | 121° |
| 2026-05-08 04:34 | 43.47533 | -116.31010 | 11187 ft | 358 kts | 107° |
| 2026-05-08 04:34 | 43.46856 | -116.27656 | 11935 ft | 364 kts | 103° |
| 2026-05-08 04:34 | 43.46247 | -116.24230 | 12744 ft | 369 kts | 102° |
| 2026-05-08 04:34 | 43.45650 | -116.20810 | 13548 ft | 374 kts | 103° |
| 2026-05-08 04:35 | 43.45024 | -116.17310 | 14269 ft | 380 kts | 103° |
| 2026-05-08 04:35 | 43.44368 | -116.13745 | 14998 ft | 384 kts | 103° |
| 2026-05-08 04:35 | 43.43693 | -116.10166 | 15644 ft | 389 kts | 103° |
| 2026-05-08 04:35 | 43.43001 | -116.06554 | 15961 ft | 390 kts | 104° |
| 2026-05-08 04:36 | 43.42304 | -116.02957 | 15991 ft | 394 kts | 104° |
| 2026-05-08 04:36 | 43.41596 | -115.99322 | 15988 ft | 392 kts | 104° |
| 2026-05-08 04:36 | 43.40886 | -115.95698 | 15990 ft | 391 kts | 104° |
| 2026-05-08 04:36 | 43.40176 | -115.92082 | 15984 ft | 391 kts | 104° |
| 2026-05-08 04:37 | 43.39464 | -115.88459 | 15984 ft | 391 kts | 104° |
| 2026-05-08 04:37 | 43.38760 | -115.84882 | 15980 ft | 392 kts | 104° |
| 2026-05-08 04:37 | 43.38040 | -115.81229 | 16221 ft | 398 kts | 104° |
| 2026-05-08 04:37 | 43.37310 | -115.77529 | 16963 ft | 401 kts | 104° |
| 2026-05-08 04:38 | 43.36578 | -115.73831 | 17783 ft | 403 kts | 104° |
| 2026-05-08 04:38 | 43.35839 | -115.70099 | 18453 ft | 408 kts | 103° |
| 2026-05-08 04:38 | 43.35095 | -115.66352 | 19035 ft | 412 kts | 103° |
| 2026-05-08 04:38 | 43.34336 | -115.62535 | 19694 ft | 415 kts | 104° |
| 2026-05-08 04:39 | 43.33570 | -115.58693 | 20349 ft | 418 kts | 104° |
| 2026-05-08 04:39 | 43.32799 | -115.54832 | 20981 ft | 421 kts | 103° |
| 2026-05-08 04:39 | 43.32017 | -115.50923 | 21590 ft | 425 kts | 104° |
| 2026-05-08 04:39 | 43.31229 | -115.46992 | 22185 ft | 429 kts | 104° |
| 2026-05-08 04:40 | 43.30433 | -115.43024 | 22780 ft | 432 kts | 104° |
| 2026-05-08 04:40 | 43.29629 | -115.39029 | 23367 ft | 436 kts | 104° |
| 2026-05-08 04:40 | 43.28819 | -115.34995 | 23858 ft | 440 kts | 103° |
| 2026-05-08 04:40 | 43.28026 | -115.30977 | 24320 ft | 443 kts | 103° |
| 2026-05-08 04:41 | 43.27223 | -115.26867 | 24799 ft | 446 kts | 103° |
| 2026-05-08 04:41 | 43.26420 | -115.22750 | 25268 ft | 449 kts | 103° |
| 2026-05-08 04:41 | 43.25607 | -115.18590 | 25728 ft | 452 kts | 103° |
| 2026-05-08 04:41 | 43.24787 | -115.14408 | 26177 ft | 455 kts | 103° |
| 2026-05-08 04:42 | 43.23959 | -115.10199 | 26605 ft | 458 kts | 102° |
| 2026-05-08 04:42 | 43.23130 | -115.06001 | 27052 ft | 461 kts | 102° |
| 2026-05-08 04:42 | 43.22287 | -115.01744 | 27488 ft | 464 kts | 102° |
| 2026-05-08 04:42 | 43.21435 | -114.97454 | 27904 ft | 468 kts | 102° |
| 2026-05-08 04:43 | 43.20576 | -114.93137 | 28317 ft | 471 kts | 102° |
| 2026-05-08 04:43 | 43.19710 | -114.88793 | 28710 ft | 474 kts | 102° |
| 2026-05-08 04:43 | 43.18836 | -114.84417 | 29100 ft | 477 kts | 102° |
| 2026-05-08 04:43 | 43.17955 | -114.80020 | 29480 ft | 480 kts | 102° |
| 2026-05-08 04:44 | 43.17068 | -114.75604 | 29859 ft | 482 kts | 102° |
| 2026-05-08 04:44 | 43.16173 | -114.71155 | 30185 ft | 485 kts | 102° |
| 2026-05-08 04:44 | 43.15272 | -114.66685 | 30479 ft | 488 kts | 102° |
| 2026-05-08 04:44 | 43.14363 | -114.62189 | 30762 ft | 491 kts | 102° |
| 2026-05-08 04:45 | 43.13459 | -114.57725 | 31036 ft | 493 kts | 102° |
| 2026-05-08 04:45 | 43.12535 | -114.53172 | 31312 ft | 495 kts | 102° |
| 2026-05-08 04:45 | 43.11610 | -114.48625 | 31594 ft | 497 kts | 102° |
| 2026-05-08 04:45 | 43.10678 | -114.44053 | 31865 ft | 499 kts | 102° |
| 2026-05-08 04:46 | 43.09739 | -114.39459 | 32152 ft | 500 kts | 101° |
| 2026-05-08 04:46 | 43.08798 | -114.34869 | 32518 ft | 499 kts | 101° |
| 2026-05-08 04:46 | 43.07872 | -114.30366 | 32944 ft | 497 kts | 101° |
| 2026-05-08 04:46 | 43.06935 | -114.25821 | 33355 ft | 495 kts | 101° |
| 2026-05-08 04:47 | 43.05997 | -114.21271 | 33696 ft | 495 kts | 101° |
| 2026-05-08 04:47 | 43.05062 | -114.16743 | 34012 ft | 495 kts | 101° |
| 2026-05-08 04:47 | 43.04122 | -114.12207 | 34344 ft | 494 kts | 101° |
| 2026-05-08 04:47 | 43.03197 | -114.07752 | 34691 ft | 492 kts | 101° |
| 2026-05-08 04:48 | 43.02261 | -114.03252 | 35013 ft | 491 kts | 100° |
| 2026-05-08 04:48 | 43.01327 | -113.98771 | 35330 ft | 490 kts | 100° |
| 2026-05-08 04:48 | 43.00390 | -113.94287 | 35639 ft | 489 kts | 100° |
| 2026-05-08 04:48 | 42.99455 | -113.89822 | 35937 ft | 488 kts | 100° |
| 2026-05-08 04:49 | 42.98521 | -113.85370 | 36239 ft | 487 kts | 100° |
| 2026-05-08 04:49 | 42.97585 | -113.80917 | 36560 ft | 486 kts | 100° |
| 2026-05-08 04:49 | 42.96663 | -113.76544 | 36853 ft | 485 kts | 100° |
| 2026-05-08 04:49 | 42.95723 | -113.72085 | 36884 ft | 489 kts | 100° |
| 2026-05-08 04:50 | 42.93828 | -113.63130 | 36896 ft | 489 kts | 100° |
| 2026-05-08 04:50 | 42.91951 | -113.54326 | 36888 ft | 482 kts | 100° |
| 2026-05-08 04:51 | 42.90073 | -113.45541 | 36914 ft | 481 kts | 100° |
| 2026-05-08 04:51 | 42.88191 | -113.36759 | 36911 ft | 482 kts | 100° |
| 2026-05-08 04:52 | 42.86313 | -113.28036 | 36910 ft | 482 kts | 100° |
| 2026-05-08 04:52 | 42.84415 | -113.19258 | 36909 ft | 482 kts | 100° |
| 2026-05-08 04:53 | 42.82508 | -113.10481 | 36918 ft | 483 kts | 100° |
| 2026-05-08 04:53 | 42.80606 | -113.01762 | 36935 ft | 483 kts | 100° |
| 2026-05-08 04:54 | 42.78687 | -112.92994 | 36959 ft | 483 kts | 100° |
| 2026-05-08 04:54 | 42.76757 | -112.84220 | 36977 ft | 484 kts | 101° |
| 2026-05-08 04:55 | 42.74482 | -112.75568 | 36991 ft | 488 kts | 105° |
| 2026-05-08 04:55 | 42.71965 | -112.66950 | 36977 ft | 489 kts | 106° |
| 2026-05-08 04:56 | 42.69447 | -112.58359 | 36992 ft | 488 kts | 106° |
| 2026-05-08 04:56 | 42.66973 | -112.49804 | 36964 ft | 487 kts | 106° |
| 2026-05-08 04:57 | 42.64504 | -112.41227 | 36964 ft | 486 kts | 106° |
| 2026-05-08 04:57 | 42.62039 | -112.32678 | 36938 ft | 486 kts | 106° |
| 2026-05-08 04:58 | 42.59582 | -112.24190 | 36932 ft | 485 kts | 106° |
| 2026-05-08 04:58 | 42.57107 | -112.15674 | 36944 ft | 484 kts | 106° |
| 2026-05-08 04:59 | 42.54626 | -112.07169 | 36946 ft | 483 kts | 106° |
| 2026-05-08 04:59 | 42.52159 | -111.98738 | 36940 ft | 483 kts | 107° |
| 2026-05-08 05:00 | 42.49667 | -111.90249 | 36948 ft | 483 kts | 107° |
| 2026-05-08 05:00 | 42.47174 | -111.81786 | 36952 ft | 483 kts | 107° |
| 2026-05-08 05:01 | 42.44679 | -111.73345 | 36963 ft | 483 kts | 107° |
| 2026-05-08 05:01 | 42.42192 | -111.64956 | 36979 ft | 483 kts | 107° |
| 2026-05-08 05:02 | 42.39673 | -111.56485 | 36967 ft | 483 kts | 107° |
| 2026-05-08 05:02 | 42.37152 | -111.48039 | 36967 ft | 484 kts | 107° |
| 2026-05-08 05:03 | 42.34639 | -111.39648 | 36976 ft | 483 kts | 107° |
| 2026-05-08 05:03 | 42.32107 | -111.31222 | 36977 ft | 483 kts | 107° |
| 2026-05-08 05:04 | 42.29574 | -111.22813 | 36977 ft | 483 kts | 108° |
| 2026-05-08 05:04 | 42.27052 | -111.14468 | 36968 ft | 483 kts | 108° |
| 2026-05-08 05:05 | 42.24507 | -111.06080 | 36976 ft | 483 kts | 108° |
| 2026-05-08 05:05 | 42.21952 | -110.97682 | 36995 ft | 483 kts | 108° |
| 2026-05-08 05:06 | 42.19394 | -110.89302 | 36985 ft | 483 kts | 108° |
| 2026-05-08 05:06 | 42.16827 | -110.80918 | 37003 ft | 483 kts | 108° |
| 2026-05-08 05:07 | 42.14270 | -110.72593 | 37006 ft | 484 kts | 108° |
| 2026-05-08 05:07 | 42.11681 | -110.64191 | 37037 ft | 484 kts | 108° |
| 2026-05-08 05:08 | 42.09088 | -110.55802 | 37066 ft | 485 kts | 108° |
| 2026-05-08 05:08 | 42.06502 | -110.47467 | 37080 ft | 485 kts | 108° |
| 2026-05-08 05:09 | 42.03892 | -110.39079 | 37080 ft | 485 kts | 108° |
| 2026-05-08 05:09 | 42.01275 | -110.30692 | 37060 ft | 486 kts | 108° |
| 2026-05-08 05:10 | 41.97337 | -110.18124 | 37022 ft | 486 kts | 108° |
| 2026-05-08 05:11 | 41.94700 | -110.09741 | 36982 ft | 487 kts | 108° |
| 2026-05-08 05:11 | 41.92071 | -110.01409 | 36979 ft | 487 kts | 108° |
| 2026-05-08 05:12 | 41.89413 | -109.93014 | 36974 ft | 488 kts | 108° |
| 2026-05-08 05:12 | 41.86747 | -109.84617 | 36977 ft | 489 kts | 108° |
| 2026-05-08 05:13 | 41.84090 | -109.76273 | 36981 ft | 489 kts | 108° |
| 2026-05-08 05:13 | 41.81401 | -109.67859 | 36981 ft | 490 kts | 108° |
| 2026-05-08 05:14 | 41.78705 | -109.59446 | 36980 ft | 491 kts | 108° |
| 2026-05-08 05:14 | 41.76016 | -109.51084 | 36977 ft | 492 kts | 108° |
| 2026-05-08 05:15 | 41.73303 | -109.42670 | 37010 ft | 492 kts | 108° |
| 2026-05-08 05:15 | 41.70580 | -109.34253 | 37052 ft | 493 kts | 108° |
| 2026-05-08 05:16 | 41.68304 | -109.27236 | 37079 ft | 493 kts | 109° |
| 2026-05-08 05:16 | 41.65117 | -109.17447 | 37131 ft | 493 kts | 109° |
| 2026-05-08 05:17 | 41.62833 | -109.10449 | 37128 ft | 493 kts | 109° |
| 2026-05-08 05:17 | 41.60084 | -109.02052 | 37135 ft | 493 kts | 109° |
| 2026-05-08 05:18 | 41.57323 | -108.93642 | 37124 ft | 493 kts | 109° |
| 2026-05-08 05:18 | 41.54561 | -108.85257 | 37091 ft | 493 kts | 109° |
| 2026-05-08 05:19 | 41.51790 | -108.76870 | 37054 ft | 493 kts | 109° |
| 2026-05-08 05:19 | 41.49030 | -108.68539 | 37020 ft | 493 kts | 109° |
| 2026-05-08 05:20 | 41.46246 | -108.60164 | 36991 ft | 493 kts | 109° |
| 2026-05-08 05:20 | 41.43479 | -108.51861 | 36978 ft | 493 kts | 109° |
| 2026-05-08 05:21 | 41.40686 | -108.43508 | 36973 ft | 493 kts | 109° |
| 2026-05-08 05:21 | 41.37881 | -108.35135 | 36991 ft | 498 kts | 108° |
| 2026-05-08 05:22 | 41.35461 | -108.26496 | 36997 ft | 496 kts | 101° |
| 2026-05-08 05:22 | 41.33439 | -108.17697 | 36986 ft | 498 kts | 100° |
| 2026-05-08 05:23 | 41.31381 | -108.08876 | 36996 ft | 498 kts | 101° |
| 2026-05-08 05:23 | 41.30326 | -108.04509 | 36859 ft | 497 kts | 101° |
| 2026-05-08 05:23 | 41.29251 | -108.00110 | 36076 ft | 501 kts | 101° |
| 2026-05-08 05:23 | 41.28178 | -107.95767 | 35561 ft | 497 kts | 101° |
| 2026-05-08 05:24 | 41.27095 | -107.91405 | 35026 ft | 494 kts | 101° |
| 2026-05-08 05:24 | 41.26017 | -107.87071 | 34575 ft | 492 kts | 101° |
| 2026-05-08 05:24 | 41.24947 | -107.82763 | 34389 ft | 490 kts | 101° |
| 2026-05-08 05:24 | 41.23876 | -107.78450 | 34498 ft | 493 kts | 101° |
| 2026-05-08 05:25 | 41.22812 | -107.74156 | 34557 ft | 499 kts | 101° |
| 2026-05-08 05:25 | 41.20638 | -107.65443 | 34226 ft | 490 kts | 101° |
| 2026-05-08 05:25 | 41.19560 | -107.61146 | 33533 ft | 490 kts | 101° |
| 2026-05-08 05:26 | 41.18486 | -107.56860 | 33264 ft | 480 kts | 101° |
| 2026-05-08 05:26 | 41.16371 | -107.48419 | 32948 ft | 496 kts | 101° |
| 2026-05-08 05:26 | 41.15266 | -107.43996 | 32657 ft | 511 kts | 102° |
| 2026-05-08 05:27 | 41.14128 | -107.39484 | 32352 ft | 516 kts | 102° |
| 2026-05-08 05:27 | 41.12998 | -107.35042 | 32036 ft | 512 kts | 102° |
| 2026-05-08 05:27 | 41.11864 | -107.30594 | 31719 ft | 508 kts | 102° |
| 2026-05-08 05:27 | 41.10729 | -107.26136 | 31420 ft | 511 kts | 102° |
| 2026-05-08 05:28 | 41.09589 | -107.21652 | 31111 ft | 512 kts | 102° |
| 2026-05-08 05:28 | 41.08447 | -107.17165 | 30810 ft | 513 kts | 102° |
| 2026-05-08 05:28 | 41.07302 | -107.12677 | 30520 ft | 514 kts | 102° |
| 2026-05-08 05:28 | 41.06154 | -107.08185 | 30188 ft | 515 kts | 102° |
| 2026-05-08 05:29 | 41.05002 | -107.03684 | 29773 ft | 517 kts | 103° |
| 2026-05-08 05:29 | 41.03857 | -106.99223 | 29363 ft | 517 kts | 103° |
| 2026-05-08 05:29 | 41.02695 | -106.94708 | 28959 ft | 517 kts | 103° |
| 2026-05-08 05:29 | 41.01534 | -106.90209 | 28657 ft | 514 kts | 103° |
| 2026-05-08 05:30 | 41.00376 | -106.85732 | 28382 ft | 511 kts | 104° |
| 2026-05-08 05:30 | 40.99222 | -106.81275 | 28127 ft | 509 kts | 104° |
| 2026-05-08 05:30 | 40.98088 | -106.76899 | 27866 ft | 508 kts | 104° |
| 2026-05-08 05:30 | 40.96944 | -106.72491 | 27639 ft | 507 kts | 104° |
| 2026-05-08 05:31 | 40.95796 | -106.68074 | 27431 ft | 507 kts | 105° |
| 2026-05-08 05:31 | 40.94646 | -106.63655 | 27249 ft | 507 kts | 105° |
| 2026-05-08 05:31 | 40.93491 | -106.59232 | 27057 ft | 508 kts | 105° |
| 2026-05-08 05:31 | 40.92334 | -106.54804 | 26873 ft | 509 kts | 105° |
| 2026-05-08 05:32 | 40.91175 | -106.50377 | 26683 ft | 510 kts | 105° |
| 2026-05-08 05:32 | 40.90013 | -106.45951 | 26591 ft | 508 kts | 106° |
| 2026-05-08 05:32 | 40.88854 | -106.41544 | 26516 ft | 507 kts | 106° |
| 2026-05-08 05:32 | 40.87707 | -106.37190 | 26436 ft | 507 kts | 106° |
| 2026-05-08 05:33 | 40.86547 | -106.32792 | 26368 ft | 506 kts | 106° |
| 2026-05-08 05:33 | 40.85388 | -106.28403 | 26289 ft | 501 kts | 106° |
| 2026-05-08 05:33 | 40.84242 | -106.24158 | 26197 ft | 481 kts | 108° |
| 2026-05-08 05:33 | 40.82952 | -106.20166 | 26103 ft | 468 kts | 112° |
| 2026-05-08 05:34 | 40.81547 | -106.16298 | 26035 ft | 465 kts | 114° |
| 2026-05-08 05:34 | 40.80124 | -106.12495 | 25967 ft | 464 kts | 114° |
| 2026-05-08 05:34 | 40.78706 | -106.08669 | 25896 ft | 464 kts | 114° |
| 2026-05-08 05:34 | 40.77309 | -106.04824 | 25829 ft | 463 kts | 113° |
| 2026-05-08 05:35 | 40.75934 | -106.00980 | 25761 ft | 463 kts | 113° |
| 2026-05-08 05:35 | 40.74567 | -105.97134 | 25695 ft | 462 kts | 113° |
| 2026-05-08 05:35 | 40.73217 | -105.93339 | 25613 ft | 462 kts | 113° |
| 2026-05-08 05:35 | 40.71852 | -105.89514 | 25540 ft | 461 kts | 113° |
| 2026-05-08 05:36 | 40.70487 | -105.85682 | 25393 ft | 461 kts | 113° |
| 2026-05-08 05:36 | 40.69127 | -105.81846 | 25238 ft | 461 kts | 113° |
| 2026-05-08 05:36 | 40.67776 | -105.78021 | 25073 ft | 460 kts | 113° |
| 2026-05-08 05:36 | 40.66449 | -105.74252 | 24934 ft | 458 kts | 113° |
| 2026-05-08 05:37 | 40.65113 | -105.70451 | 24730 ft | 456 kts | 113° |
| 2026-05-08 05:37 | 40.63801 | -105.66698 | 24478 ft | 444 kts | 113° |
| 2026-05-08 05:37 | 40.62525 | -105.63037 | 24224 ft | 433 kts | 113° |
| 2026-05-08 05:37 | 40.61286 | -105.59465 | 23987 ft | 423 kts | 113° |
| 2026-05-08 05:38 | 40.60082 | -105.55984 | 23734 ft | 413 kts | 114° |
| 2026-05-08 05:38 | 40.58929 | -105.52639 | 23744 ft | 399 kts | 113° |
| 2026-05-08 05:38 | 40.57778 | -105.49299 | 23645 ft | 408 kts | 114° |
| 2026-05-08 05:38 | 40.56588 | -105.45826 | 23111 ft | 420 kts | 114° |
| 2026-05-08 05:39 | 40.55397 | -105.42329 | 22591 ft | 418 kts | 113° |
| 2026-05-08 05:39 | 40.54215 | -105.38846 | 22072 ft | 417 kts | 114° |
| 2026-05-08 05:39 | 40.53040 | -105.35380 | 21559 ft | 414 kts | 114° |
| 2026-05-08 05:39 | 40.51872 | -105.31934 | 21152 ft | 408 kts | 113° |
| 2026-05-08 05:40 | 40.50701 | -105.28579 | 20772 ft | 402 kts | 116° |
| 2026-05-08 05:40 | 40.49348 | -105.25386 | 20405 ft | 396 kts | 122° |
| 2026-05-08 05:40 | 40.47924 | -105.22305 | 20052 ft | 392 kts | 121° |
| 2026-05-08 05:40 | 40.46520 | -105.19238 | 19689 ft | 389 kts | 121° |
| 2026-05-08 05:41 | 40.44951 | -105.16380 | 19331 ft | 384 kts | 135° |
| 2026-05-08 05:41 | 40.42947 | -105.14190 | 18991 ft | 377 kts | 148° |
| 2026-05-08 05:41 | 40.40783 | -105.12286 | 18650 ft | 373 kts | 148° |
| 2026-05-08 05:41 | 40.38637 | -105.10374 | 18276 ft | 370 kts | 148° |
| 2026-05-08 05:42 | 40.36476 | -105.08494 | 17526 ft | 377 kts | 149° |
| 2026-05-08 05:42 | 40.34277 | -105.06581 | 16917 ft | 379 kts | 148° |
| 2026-05-08 05:42 | 40.32082 | -105.04666 | 16482 ft | 376 kts | 148° |
| 2026-05-08 05:42 | 40.29936 | -105.02790 | 16062 ft | 373 kts | 148° |
| 2026-05-08 05:43 | 40.27793 | -105.00915 | 15755 ft | 368 kts | 148° |
| 2026-05-08 05:43 | 40.25671 | -104.99060 | 15515 ft | 365 kts | 148° |
| 2026-05-08 05:43 | 40.23562 | -104.97220 | 15287 ft | 361 kts | 148° |
| 2026-05-08 05:43 | 40.21464 | -104.95372 | 15060 ft | 365 kts | 147° |
| 2026-05-08 05:44 | 40.19375 | -104.93453 | 14839 ft | 370 kts | 146° |
| 2026-05-08 05:44 | 40.17208 | -104.91638 | 14603 ft | 367 kts | 155° |
| 2026-05-08 05:44 | 40.14900 | -104.90272 | 14385 ft | 362 kts | 160° |
| 2026-05-08 05:44 | 40.12572 | -104.89068 | 14171 ft | 359 kts | 161° |
| 2026-05-08 05:45 | 40.10247 | -104.87853 | 13956 ft | 358 kts | 160° |
| 2026-05-08 05:45 | 40.07984 | -104.86618 | 13727 ft | 357 kts | 160° |
| 2026-05-08 05:45 | 40.05702 | -104.85343 | 13492 ft | 355 kts | 159° |
| 2026-05-08 05:45 | 40.03437 | -104.84060 | 13267 ft | 353 kts | 159° |
| 2026-05-08 05:46 | 40.01191 | -104.82774 | 13039 ft | 350 kts | 159° |
| 2026-05-08 05:46 | 39.98986 | -104.81509 | 12800 ft | 341 kts | 159° |
| 2026-05-08 05:46 | 39.96788 | -104.80491 | 12583 ft | 330 kts | 174° |
| 2026-05-08 05:46 | 39.94549 | -104.80375 | 12426 ft | 316 kts | 185° |
| 2026-05-08 05:47 | 39.92403 | -104.80452 | 12239 ft | 309 kts | 186° |
| 2026-05-08 05:47 | 39.90263 | -104.80543 | 12060 ft | 306 kts | 185° |
| 2026-05-08 05:47 | 39.88149 | -104.80625 | 11876 ft | 300 kts | 185° |
| 2026-05-08 05:47 | 39.86073 | -104.80694 | 11692 ft | 293 kts | 185° |
| 2026-05-08 05:48 | 39.84056 | -104.80753 | 11515 ft | 288 kts | 185° |
| 2026-05-08 05:48 | 39.82070 | -104.80806 | 11339 ft | 282 kts | 185° |
| 2026-05-08 05:48 | 39.80127 | -104.80858 | 11174 ft | 276 kts | 184° |
| 2026-05-08 05:48 | 39.78259 | -104.80916 | 11099 ft | 267 kts | 186° |
| 2026-05-08 05:49 | 39.76437 | -104.81048 | 11075 ft | 257 kts | 187° |
| 2026-05-08 05:49 | 39.74650 | -104.81151 | 11078 ft | 256 kts | 184° |
| 2026-05-08 05:49 | 39.72861 | -104.81139 | 11090 ft | 258 kts | 183° |
| 2026-05-08 05:49 | 39.71051 | -104.81112 | 10969 ft | 263 kts | 182° |
| 2026-05-08 05:50 | 39.69204 | -104.81084 | 10760 ft | 266 kts | 182° |
| 2026-05-08 05:50 | 39.67387 | -104.81059 | 10522 ft | 264 kts | 182° |
| 2026-05-08 05:50 | 39.65533 | -104.81035 | 10284 ft | 262 kts | 182° |
| 2026-05-08 05:50 | 39.63732 | -104.81014 | 10069 ft | 260 kts | 182° |
| 2026-05-08 05:51 | 39.61923 | -104.80998 | 9825 ft | 259 kts | 182° |
| 2026-05-08 05:51 | 39.60124 | -104.80984 | 9563 ft | 257 kts | 182° |
| 2026-05-08 05:51 | 39.58356 | -104.80971 | 9350 ft | 251 kts | 182° |
| 2026-05-08 05:51 | 39.56659 | -104.80587 | 9060 ft | 249 kts | 156° |
| 2026-05-08 05:52 | 39.55338 | -104.79175 | 8806 ft | 249 kts | 124° |
| 2026-05-08 05:52 | 39.54747 | -104.77107 | 8571 ft | 243 kts | 94° |
| 2026-05-08 05:52 | 39.54712 | -104.74960 | 8355 ft | 234 kts | 88° |
| 2026-05-08 05:52 | 39.54740 | -104.72892 | 8152 ft | 224 kts | 88° |
| 2026-05-08 05:53 | 39.54776 | -104.70924 | 8088 ft | 215 kts | 87° |
| 2026-05-08 05:53 | 39.55009 | -104.69048 | 8060 ft | 212 kts | 60° |
| 2026-05-08 05:53 | 39.56009 | -104.67749 | 8102 ft | 209 kts | 31° |
| 2026-05-08 05:53 | 39.57327 | -104.67025 | 8148 ft | 205 kts | 5° |
| 2026-05-08 05:54 | 39.58734 | -104.67130 | 8165 ft | 202 kts | 344° |
| 2026-05-08 05:54 | 39.60068 | -104.67671 | 8208 ft | 201 kts | 335° |
| 2026-05-08 05:54 | 39.61339 | -104.68433 | 8254 ft | 196 kts | 333° |
| 2026-05-08 05:54 | 39.62589 | -104.69018 | 8498 ft | 189 kts | 345° |
| 2026-05-08 05:55 | 39.63918 | -104.69215 | 8563 ft | 193 kts | 355° |
| 2026-05-08 05:55 | 39.65255 | -104.69280 | 8594 ft | 191 kts | 355° |
| 2026-05-08 05:55 | 39.66585 | -104.69361 | 8580 ft | 193 kts | 355° |
| 2026-05-08 05:55 | 39.67928 | -104.69441 | 8499 ft | 198 kts | 355° |
| 2026-05-08 05:56 | 39.69305 | -104.69506 | 8325 ft | 197 kts | 356° |
| 2026-05-08 05:56 | 39.70646 | -104.69568 | 8252 ft | 184 kts | 355° |
| 2026-05-08 05:56 | 39.71881 | -104.69651 | 8096 ft | 175 kts | 354° |
| 2026-05-08 05:56 | 39.73100 | -104.69778 | 7777 ft | 176 kts | 352° |
| 2026-05-08 05:57 | 39.74336 | -104.69833 | 7465 ft | 178 kts | 359° |
| 2026-05-08 05:57 | 39.75562 | -104.69801 | 7235 ft | 175 kts | 360° |
| 2026-05-08 05:57 | 39.76773 | -104.69722 | 6986 ft | 174 kts | 1° |
| 2026-05-08 05:57 | 39.77974 | -104.69651 | 6743 ft | 167 kts | 359° |
| 2026-05-08 05:58 | 39.79048 | -104.69693 | 6689 ft | 146 kts | 355° |
| 2026-05-08 05:58 | 39.80056 | -104.69715 | 6466 ft | 141 kts | 358° |
| 2026-05-08 05:58 | 39.80986 | -104.69721 | 6455 ft | 137 kts | 359° |
| 2026-05-08 05:58 | 39.81969 | -104.69713 | 6328 ft | 142 kts | 359° |
| 2026-05-08 05:59 | 39.82941 | -104.69725 | 6065 ft | 137 kts | 2° |
| 2026-05-08 05:59 | 39.83867 | -104.69698 | 5804 ft | 129 kts | 4° |
| 2026-05-08 05:59 | 39.84750 | -104.69690 | 5545 ft | 122 kts | 3° |
| 2026-05-08 05:59 | 39.85588 | -104.69663 | 5351 ft | 120 kts | 2° |
| 2026-05-08 06:00 | 39.86336 | -104.69646 | 5333 ft | 92 kts | 0° |
| 2026-05-08 06:00 | 39.86854 | -104.69641 | 5336 ft | 57 kts | 0° |
| 2026-05-08 06:00 | 39.87221 | -104.69605 | 5339 ft | 50 kts | 14° |
| 2026-05-08 06:00 | 39.87370 | -104.69521 | 5337 ft | 8 kts | 26° |
| 2026-05-08 06:01 | 39.87392 | -104.69506 | 5337 ft | 0 kts | 28° |
| 2026-05-08 06:02 | 39.87396 | -104.69498 | 5341 ft | 3 kts | 60° |
| 2026-05-08 06:03 | 39.87382 | -104.69463 | 5340 ft | 7 kts | 133° |
| 2026-05-08 06:03 | 39.87325 | -104.69424 | 5343 ft | 12 kts | 176° |
| 2026-05-08 06:03 | 39.87212 | -104.69423 | 5342 ft | 22 kts | 180° |
| 2026-05-08 06:03 | 39.87022 | -104.69424 | 5342 ft | 32 kts | 180° |
| 2026-05-08 06:04 | 39.86780 | -104.69429 | 5341 ft | 36 kts | 180° |
| 2026-05-08 06:04 | 39.86536 | -104.69422 | 5339 ft | 34 kts | 168° |
| 2026-05-08 06:04 | 39.86343 | -104.69296 | 5349 ft | 29 kts | 150° |
| 2026-05-08 06:04 | 39.86172 | -104.69171 | 5353 ft | 28 kts | 150° |
| 2026-05-08 06:05 | 39.86038 | -104.69026 | 5356 ft | 24 kts | 100° |
| 2026-05-08 06:05 | 39.86035 | -104.68814 | 5360 ft | 23 kts | 90° |
| 2026-05-08 06:05 | 39.86034 | -104.68608 | 5362 ft | 22 kts | 90° |
| 2026-05-08 06:05 | 39.86028 | -104.68471 | 5364 ft | 5 kts | 103° |
| 2026-05-08 06:06 | 39.85998 | -104.68461 | 5364 ft | 7 kts | 203° |
| 2026-05-08 06:06 | 39.85931 | -104.68515 | 5363 ft | 10 kts | 179° |
| 2026-05-08 06:06 | 39.85889 | -104.68511 | 5363 ft | 12 kts | 177° |
| 2026-05-08 06:06 | 39.85766 | -104.68515 | 5364 ft | 21 kts | 182° |
| 2026-05-08 06:07 | 39.85688 | -104.68434 | 5368 ft | 20 kts | 95° |
| 2026-05-08 06:07 | 39.85706 | -104.68379 | 5369 ft | 6 kts | 23° |
| 2026-05-08 06:07 | 39.85806 | -104.68388 | 5368 ft | 23 kts | 353° |
| 2026-05-08 06:07 | 39.86005 | -104.68395 | 5366 ft | 33 kts | 2° |
| 2026-05-08 06:08 | 39.86205 | -104.68382 | 5363 ft | 18 kts | 30° |
| 2026-05-08 06:08 | 39.86234 | -104.68229 | 5367 ft | 18 kts | 99° |
| 2026-05-08 06:08 | 39.86129 | -104.68184 | 5367 ft | 17 kts | 157° |
| 2026-05-08 06:08 | 39.86128 | -104.68046 | 5368 ft | 17 kts | 69° |
| 2026-05-08 06:09 | 39.86137 | -104.67899 | 5368 ft | 16 kts | 91° |
| 2026-05-08 06:09 | 39.86170 | -104.67777 | 5367 ft | 13 kts | 39° |
| 2026-05-08 06:09 | 39.86195 | -104.67667 | 5371 ft | 13 kts | 91° |
| 2026-05-08 06:09 | 39.86209 | -104.67572 | 5373 ft | 0 kts | 78° |
| 2026-05-08 06:10 | 39.86209 | -104.67569 | 5370 ft | 2 kts | 78° |
| 2026-05-08 06:10 | 39.86229 | -104.67532 | 5371 ft | 6 kts | 24° |
| 2026-05-08 06:10 | 39.86251 | -104.67529 | 5372 ft | 0 kts | 2° |
| 2026-05-08 06:10 | 39.86255 | -104.67528 | 5371 ft | 3 kts | 6° |
| 2026-05-08 06:11 | 39.86259 | -104.67528 | 5371 ft | 0 kts | 4° |
| 2026-05-08 06:11 | 39.86258 | -104.67033 | 5373 ft | 0 kts | 1° |